Terminal Aerodrome Forecast
Issued by NWS Mobile, AL

Home | Current Version | Previous Version | Text Only | Print | Product List | Glossary On
Versions: 1 2 3 4 5 6 7 8 9 10 11 12 13 14
000
FTUS44 KMOB 211720
TAFMOB
TAF
KMOB 211720Z 2118/2218 08005KT P6SM VCTS SCT035CB BKN150 BKN250
      TEMPO 2119/2123 4SM TSRA OVC035CB
     FM220200 14003KT P6SM BKN250
     FM221700 16005KT P6SM VCTS SCT035CB SCT250=

USA.gov is the U.S. government's official web portal to all federal, state and local government web resources and services.